Time;durP1;ratioP1;P1;durP2;ratioP2;P2;SDS_P1;SDS_P2;PMS_P1;PMS_P2;Temp;Humidity;BMP_temperature;BMP_pressure;BME280_temperature;BME280_humidity;BME280_pressure;Samples;Min_cycle;Max_cycle;Signal;HPM_P1;HPM_P2
2021/07/12 00:00:39;;;;;;;4.83;4.47;;;17.10;99.90;;;;;;5096619;28;20617;-70
2021/07/12 00:03:06;;;;;;;9.30;4.57;;;17.10;99.90;;;;;;5096446;28;20597;-70
2021/07/12 00:05:33;;;;;;;5.00;4.53;;;17.10;99.90;;;;;;5096107;28;20962;-71
2021/07/12 00:08:00;;;;;;;5.43;4.93;;;17.10;99.90;;;;;;5096331;28;20654;-72
2021/07/12 00:10:28;;;;;;;5.03;4.63;;;17.10;99.90;;;;;;5096316;28;20607;-71
2021/07/12 00:12:56;;;;;;;4.47;4.10;;;17.00;99.90;;;;;;5096169;28;20644;-71
2021/07/12 00:15:24;;;;;;;5.33;4.90;;;16.90;99.90;;;;;;5096405;28;20620;-71
2021/07/12 00:17:51;;;;;;;5.13;4.63;;;16.90;99.90;;;;;;5077916;28;20985;-72
2021/07/12 00:20:18;;;;;;;4.60;4.20;;;16.90;99.90;;;;;;5096218;28;20593;-71
2021/07/12 00:22:46;;;;;;;5.57;4.70;;;16.90;99.90;;;;;;5096139;28;20608;-72
2021/07/12 00:25:14;;;;;;;5.07;4.77;;;16.90;99.90;;;;;;5078180;28;20948;-71
2021/07/12 00:27:41;;;;;;;5.13;4.77;;;16.80;99.90;;;;;;5095398;28;21226;-71
2021/07/12 00:30:11;;;;;;;4.70;4.20;;;16.70;99.90;;;;;;5095610;28;20620;-71
2021/07/12 00:32:38;;;;;;;4.67;4.37;;;16.70;99.90;;;;;;5095783;28;20667;-71
2021/07/12 00:35:06;;;;;;;4.47;4.17;;;16.70;99.90;;;;;;5077885;28;20603;-71
2021/07/12 00:37:33;;;;;;;5.50;4.90;;;16.70;99.90;;;;;;5095896;28;20946;-71
2021/07/12 00:40:00;;;;;;;5.37;4.97;;;16.70;99.90;;;;;;5095609;28;20593;-71
2021/07/12 00:42:26;;;;;;;5.13;4.73;;;16.60;99.90;;;;;;5095294;28;20712;-72
2021/07/12 00:44:53;;;;;;;4.93;4.53;;;16.70;99.90;;;;;;5095663;28;20604;-71
2021/07/12 00:47:19;;;;;;;6.00;5.50;;;16.60;99.90;;;;;;5095645;28;20601;-71
2021/07/12 00:49:46;;;;;;;7.33;4.97;;;16.60;99.90;;;;;;5095841;28;20605;-72
2021/07/12 00:52:12;;;;;;;5.53;5.13;;;16.60;99.90;;;;;;5095003;28;20653;-70
2021/07/12 00:54:39;;;;;;;5.50;4.80;;;16.50;99.90;;;;;;5095459;28;20573;-71
2021/07/12 00:57:06;;;;;;;5.40;4.93;;;16.40;99.90;;;;;;5095324;28;21166;-71
2021/07/12 00:59:35;;;;;;;5.63;5.23;;;16.30;99.90;;;;;;5077358;28;20634;-71
2021/07/12 01:02:03;;;;;;;8.20;5.10;;;16.30;99.90;;;;;;5077668;28;20959;-71
2021/07/12 01:04:30;;;;;;;6.20;5.70;;;16.30;99.90;;;;;;5095188;28;20589;-71
2021/07/12 01:06:56;;;;;;;6.33;5.40;;;16.30;99.90;;;;;;5077339;28;21011;-71
2021/07/12 01:09:22;;;;;;;7.33;5.83;;;16.30;99.90;;;;;;5095141;28;20604;-72
2021/07/12 01:12:18;;;;;;;6.10;5.60;;;16.20;99.90;;;;;;5095167;28;20608;-72
2021/07/12 01:14:45;;;;;;;8.97;6.00;;;16.20;99.90;;;;;;5094634;28;20624;-70
2021/07/12 01:17:25;;;;;;;6.67;6.07;;;16.20;99.90;;;;;;5076750;28;21046;-71
2021/07/12 01:20:22;;;;;;;6.40;5.37;;;16.20;99.90;;;;;;5094994;28;20941;-71
2021/07/12 01:23:10;;;;;;;8.97;5.60;;;16.20;99.90;;;;;;5094606;28;20596;-72
2021/07/12 01:26:00;;;;;;;5.93;5.47;;;16.20;99.90;;;;;;5095065;28;20911;-71
2021/07/12 01:29:04;;;;;;;6.20;5.60;;;16.20;99.90;;;;;;5094779;28;20932;-71
2021/07/12 01:32:00;;;;;;;9.60;6.00;;;16.10;99.90;;;;;;5094561;28;20600;-71
2021/07/12 01:34:52;;;;;;;5.80;5.30;;;16.10;99.90;;;;;;5077585;28;20655;-71
2021/07/12 01:37:28;;;;;;;9.13;6.00;;;16.10;99.90;;;;;;5076325;28;20617;-71
2021/07/12 01:40:18;;;;;;;7.50;6.27;;;16.10;99.90;;;;;;5093427;28;20620;-71
2021/07/12 01:42:53;;;;;;;6.20;5.60;;;16.10;99.90;;;;;;5076673;28;20611;-71
2021/07/12 01:45:22;;;;;;;9.47;5.70;;;16.00;99.90;;;;;;5094622;28;20558;-71
2021/07/12 01:48:07;;;;;;;6.13;5.73;;;16.00;99.90;;;;;;5094405;28;20604;-71
2021/07/12 01:50:51;;;;;;;6.70;6.10;;;16.00;99.90;;;;;;5094612;28;20577;-71
2021/07/12 01:53:48;;;;;;;6.00;5.50;;;16.00;99.90;;;;;;5094320;28;20607;-71
2021/07/12 01:56:30;;;;;;;7.27;6.50;;;16.00;99.90;;;;;;5094268;28;20957;-71
2021/07/12 01:59:03;;;;;;;6.73;6.07;;;16.00;99.90;;;;;;5094201;28;20615;-71
2021/07/12 02:01:31;;;;;;;7.70;5.40;;;16.00;99.90;;;;;;5094178;28;20585;-70
2021/07/12 02:04:00;;;;;;;9.83;5.77;;;15.90;99.90;;;;;;5094356;28;20611;-70
2021/07/12 02:06:28;;;;;;;6.90;5.97;;;15.90;99.90;;;;;;5075564;28;20614;-70
2021/07/12 02:08:57;;;;;;;6.93;6.23;;;16.00;99.90;;;;;;5093985;28;20601;-71
2021/07/12 02:11:23;;;;;;;6.47;5.67;;;15.90;99.90;;;;;;5094026;28;20593;-71
2021/07/12 02:13:50;;;;;;;8.43;6.67;;;15.90;99.90;;;;;;5093878;28;20641;-71
2021/07/12 02:16:19;;;;;;;6.37;5.87;;;15.90;99.90;;;;;;5093972;28;20601;-71
2021/07/12 02:18:47;;;;;;;5.90;5.53;;;15.70;99.90;;;;;;5094040;28;21030;-71
2021/07/12 02:21:15;;;;;;;6.63;6.00;;;15.70;99.90;;;;;;5093772;28;20579;-71
2021/07/12 02:23:43;;;;;;;6.80;6.10;;;15.60;99.90;;;;;;5093930;28;20580;-71
2021/07/12 02:26:12;;;;;;;8.97;6.60;;;15.60;99.90;;;;;;5093714;28;20620;-71
2021/07/12 02:28:44;;;;;;;8.03;7.13;;;15.60;99.90;;;;;;5092138;28;20648;-71
2021/07/12 02:31:15;;;;;;;7.40;6.47;;;15.60;99.90;;;;;;5093558;28;20705;-71
2021/07/12 02:33:42;;;;;;;7.93;7.13;;;15.60;99.90;;;;;;5093442;28;21217;-71
2021/07/12 02:36:09;;;;;;;12.63;6.80;;;15.70;99.90;;;;;;5093689;28;20601;-71
2021/07/12 02:38:37;;;;;;;9.43;7.47;;;15.70;99.90;;;;;;5093535;28;20944;-71
2021/07/12 02:41:04;;;;;;;8.03;6.97;;;15.70;99.90;;;;;;5093500;28;20628;-71
2021/07/12 02:43:33;;;;;;;8.03;7.23;;;15.60;99.90;;;;;;5074865;28;20968;-71
2021/07/12 02:46:00;;;;;;;7.10;6.50;;;15.60;99.90;;;;;;5093538;28;20604;-71
2021/07/12 02:48:28;;;;;;;11.13;7.60;;;15.50;99.90;;;;;;5093442;28;21171;-71
2021/07/12 02:50:56;;;;;;;8.07;7.27;;;15.60;99.90;;;;;;5092222;28;20617;-71
2021/07/12 02:53:29;;;;;;;7.67;6.60;;;15.50;99.90;;;;;;5093629;28;20653;-71
2021/07/12 02:55:56;;;;;;;12.87;7.70;;;15.60;99.90;;;;;;5092644;28;20617;-71
2021/07/12 02:58:23;;;;;;;9.87;8.17;;;15.60;99.90;;;;;;5093375;28;21138;-71
2021/07/12 03:00:49;;;;;;;8.60;7.30;;;15.60;99.90;;;;;;5093480;28;20971;-71
2021/07/12 03:03:15;;;;;;;12.00;8.17;;;15.50;99.90;;;;;;5108933;28;20621;-71
2021/07/12 03:05:42;;;;;;;7.70;6.90;;;15.50;99.90;;;;;;5113199;28;20613;-71
2021/07/12 03:08:17;;;;;;;9.30;7.40;;;15.60;99.90;;;;;;5112566;28;20621;-71
2021/07/12 03:10:52;;;;;;;16.70;7.40;;;15.50;99.90;;;;;;5113167;28;20587;-71
2021/07/12 03:13:24;;;;;;;10.27;7.50;;;15.50;99.90;;;;;;5112967;28;20624;-71
2021/07/12 03:15:50;;;;;;;10.30;7.90;;;15.60;99.90;;;;;;5113198;28;20587;-71
2021/07/12 03:18:26;;;;;;;9.80;6.90;;;15.70;99.90;;;;;;5113814;28;20608;-71
2021/07/12 03:20:54;;;;;;;7.67;7.07;;;15.70;99.90;;;;;;5113584;28;20556;-71
2021/07/12 03:23:21;;;;;;;9.10;8.27;;;15.60;99.90;;;;;;5112696;28;20627;-71
2021/07/12 03:25:52;;;;;;;16.20;7.60;;;15.60;99.90;;;;;;5113547;28;20597;-71
2021/07/12 03:28:20;;;;;;;9.00;8.17;;;15.50;99.90;;;;;;5113522;28;20556;-71
2021/07/12 03:30:48;;;;;;;7.97;7.17;;;15.50;99.90;;;;;;5113110;28;21041;-71
2021/07/12 03:33:22;;;;;;;9.57;8.63;;;15.50;99.90;;;;;;5112415;28;20639;-71
2021/07/12 03:35:49;;;;;;;9.83;7.77;;;15.40;99.90;;;;;;5113217;28;20583;-71
2021/07/12 03:38:17;;;;;;;9.27;8.47;;;15.30;99.90;;;;;;5113287;28;21143;-71
2021/07/12 03:40:44;;;;;;;9.93;7.43;;;15.30;99.90;;;;;;5113171;28;20620;-72
2021/07/12 03:43:13;;;;;;;11.37;7.97;;;15.30;99.90;;;;;;5113470;28;20632;-71
2021/07/12 03:45:41;;;;;;;10.73;6.90;;;15.40;99.90;;;;;;5095093;28;20612;-71
2021/07/12 03:48:10;;;;;;;8.30;7.60;;;15.40;99.90;;;;;;5113370;28;20570;-72
2021/07/12 03:50:37;;;;;;;8.23;7.37;;;15.50;99.90;;;;;;5113285;28;20608;-71
2021/07/12 03:53:03;;;;;;;10.73;7.30;;;15.40;99.90;;;;;;5111948;28;20652;-71
2021/07/12 03:55:31;;;;;;;12.93;7.60;;;15.40;99.90;;;;;;5113074;28;21163;-71
2021/07/12 03:57:59;;;;;;;8.00;7.10;;;15.30;99.90;;;;;;5113328;28;20604;-71
2021/07/12 04:00:28;;;;;;;7.47;6.77;;;15.40;99.90;;;;;;5112793;28;20628;-71
2021/07/12 04:02:55;;;;;;;8.27;7.57;;;15.30;99.90;;;;;;5115630;28;20592;-71
2021/07/12 04:05:27;;;;;;;9.93;7.90;;;15.30;99.90;;;;;;5116720;28;20614;-71
2021/07/12 04:07:57;;;;;;;10.23;7.73;;;15.40;99.90;;;;;;5116371;28;20620;-71
2021/07/12 04:10:24;;;;;;;7.83;7.23;;;15.40;99.90;;;;;;5116604;28;20567;-71
2021/07/12 04:12:50;;;;;;;8.73;7.17;;;15.40;99.90;;;;;;5116643;28;20742;-71
2021/07/12 04:15:17;;;;;;;8.70;7.37;;;15.40;99.90;;;;;;5116260;28;20638;-71
2021/07/12 04:17:45;;;;;;;7.53;6.93;;;15.40;99.90;;;;;;5116564;28;20964;-71
2021/07/12 04:20:12;;;;;;;9.00;8.10;;;15.50;99.90;;;;;;5080944;28;20619;-71
2021/07/12 04:22:39;;;;;;;8.80;8.00;;;15.50;99.90;;;;;;5116400;28;20600;-71
2021/07/12 04:25:07;;;;;;;12.70;7.30;;;15.50;99.90;;;;;;5116315;28;20596;-71
2021/07/12 04:27:33;;;;;;;8.40;7.60;;;15.60;99.90;;;;;;5115934;28;21164;-71
2021/07/12 04:29:59;;;;;;;7.57;6.97;;;15.70;99.90;;;;;;5116519;28;20620;-71
2021/07/12 04:32:26;;;;;;;9.30;7.80;;;15.60;99.90;;;;;;5115391;28;21190;-71
2021/07/12 04:34:53;;;;;;;8.07;7.37;;;15.70;99.90;;;;;;5115687;28;20648;-71
2021/07/12 04:37:19;;;;;;;9.73;7.43;;;15.80;99.90;;;;;;5116070;28;20607;-71
2021/07/12 04:39:45;;;;;;;7.87;7.10;;;15.90;99.90;;;;;;5116121;28;20616;-71
2021/07/12 04:42:12;;;;;;;12.47;7.87;;;16.00;99.90;;;;;;5116139;28;20610;-71
2021/07/12 04:44:38;;;;;;;7.67;6.83;;;16.10;99.90;;;;;;5115992;28;20592;-71
2021/07/12 04:47:05;;;;;;;7.80;7.13;;;16.20;99.90;;;;;;5115985;28;20610;-71
2021/07/12 04:49:31;;;;;;;7.83;7.00;;;16.20;99.90;;;;;;5115491;28;21143;-71
2021/07/12 04:51:58;;;;;;;12.00;7.27;;;16.20;99.90;;;;;;5097396;28;20608;-71
2021/07/12 04:54:24;;;;;;;12.10;7.80;;;16.20;99.90;;;;;;5115848;28;20693;-71
2021/07/12 04:56:50;;;;;;;7.73;7.00;;;16.30;99.90;;;;;;5115746;28;20952;-71
2021/07/12 04:59:24;;;;;;;8.90;7.63;;;16.30;99.90;;;;;;5115591;28;20602;-71
2021/07/12 05:01:50;;;;;;;7.50;6.80;;;16.30;99.90;;;;;;5098184;28;20612;-71
2021/07/12 05:04:17;;;;;;;10.47;6.00;;;16.40;99.90;;;;;;5115336;28;20640;-71
2021/07/12 05:06:43;;;;;;;7.13;6.53;;;16.50;99.90;;;;;;5115580;28;20608;-71
2021/07/12 05:09:09;;;;;;;6.77;5.90;;;16.60;99.90;;;;;;5115461;28;21016;-71
2021/07/12 05:11:36;;;;;;;8.27;7.50;;;16.70;99.90;;;;;;5115473;28;20604;-71
2021/07/12 05:14:02;;;;;;;11.17;7.20;;;16.70;99.90;;;;;;5115226;28;20636;-71
2021/07/12 05:16:29;;;;;;;8.63;6.17;;;16.60;99.90;;;;;;5115196;28;21130;-71
2021/07/12 05:18:55;;;;;;;7.00;6.40;;;16.70;99.90;;;;;;5114819;28;20617;-71
2021/07/12 05:21:22;;;;;;;6.87;6.20;;;16.80;99.90;;;;;;5114859;28;20640;-71
2021/07/12 05:23:49;;;;;;;6.83;5.90;;;16.90;99.90;;;;;;5096699;28;20635;-71
2021/07/12 05:26:15;;;;;;;6.60;6.20;;;16.90;99.90;;;;;;5115479;28;20600;-71
2021/07/12 05:28:42;;;;;;;7.57;6.20;;;16.90;99.90;;;;;;5115174;28;20593;-71
2021/07/12 05:31:09;;;;;;;7.10;6.40;;;16.90;99.90;;;;;;5114795;28;20616;-71
2021/07/12 05:33:35;;;;;;;6.17;5.67;;;17.10;99.90;;;;;;5114876;28;20648;-71
2021/07/12 05:36:02;;;;;;;5.80;5.20;;;17.20;99.90;;;;;;5096626;28;20678;-70
2021/07/12 05:38:28;;;;;;;13.73;6.57;;;17.20;99.90;;;;;;5114747;28;20601;-71
2021/07/12 05:40:54;;;;;;;5.80;5.30;;;17.40;99.90;;;;;;5114812;28;21030;-74
2021/07/12 05:43:20;;;;;;;6.83;5.63;;;17.60;99.90;;;;;;5114839;28;20699;-71
2021/07/12 05:45:47;;;;;;;7.57;5.30;;;17.60;99.90;;;;;;5096385;28;20616;-71
2021/07/12 05:48:14;;;;;;;10.13;5.90;;;17.70;99.90;;;;;;5114672;28;20599;-71
2021/07/12 05:50:40;;;;;;;6.27;5.77;;;17.70;99.90;;;;;;5114390;28;21150;-71
2021/07/12 05:53:07;;;;;;;8.40;5.40;;;17.70;99.90;;;;;;5114420;28;20607;-71
2021/07/12 05:55:33;;;;;;;5.67;5.17;;;17.90;99.90;;;;;;5114381;28;20593;-71
2021/07/12 05:57:59;;;;;;;8.70;5.97;;;18.10;99.90;;;;;;5114466;28;20596;-71
2021/07/12 06:00:26;;;;;;;7.60;5.57;;;18.30;99.90;;;;;;5114521;28;20642;-71
2021/07/12 06:02:52;;;;;;;20.13;6.50;;;18.30;99.90;;;;;;5114149;28;20641;-71
2021/07/12 06:05:19;;;;;;;7.20;4.67;;;18.40;99.90;;;;;;5114372;28;20612;-71
2021/07/12 06:07:46;;;;;;;9.17;5.00;;;18.50;99.90;;;;;;5096122;28;20976;-71
2021/07/12 06:10:13;;;;;;;4.67;4.27;;;18.70;99.90;;;;;;5113694;28;20625;-71
2021/07/12 06:12:40;;;;;;;4.90;4.50;;;18.50;99.90;;;;;;5114806;28;20600;-71
2021/07/12 06:15:08;;;;;;;4.90;4.40;;;18.50;99.90;;;;;;5113772;28;20708;-71
2021/07/12 06:17:35;;;;;;;9.33;4.93;;;18.70;99.90;;;;;;5113939;28;21158;-71
2021/07/12 06:20:02;;;;;;;5.20;4.70;;;19.00;99.90;;;;;;5113598;28;20616;-71
2021/07/12 06:22:29;;;;;;;11.10;4.70;;;19.10;99.90;;;;;;5114135;28;20645;-71
2021/07/12 06:24:55;;;;;;;4.90;4.17;;;18.80;99.90;;;;;;5113703;28;20650;-71
2021/07/12 06:27:21;;;;;;;8.50;4.70;;;19.10;99.90;;;;;;5113937;28;20727;-71
2021/07/12 06:29:48;;;;;;;4.43;3.30;;;19.30;99.90;;;;;;5095541;28;20625;-71
2021/07/12 06:32:14;;;;;;;5.50;3.57;;;19.50;99.90;;;;;;5113683;28;20639;-71
2021/07/12 06:34:44;;;;;;;4.43;4.07;;;19.50;99.90;;;;;;5113053;28;21040;-71
2021/07/12 06:37:11;;;;;;;4.40;4.10;;;19.80;99.90;;;;;;5096043;28;20623;-71
2021/07/12 06:39:37;;;;;;;14.13;4.97;;;19.70;99.90;;;;;;5113844;28;20603;-71
2021/07/12 06:42:04;;;;;;;4.87;3.40;;;19.60;99.90;;;;;;5113366;28;20644;-72
2021/07/12 06:44:30;;;;;;;4.13;3.50;;;19.60;99.90;;;;;;5113763;28;20624;-71
2021/07/12 06:46:57;;;;;;;3.77;3.40;;;19.70;99.90;;;;;;5113664;28;20616;-71
2021/07/12 06:49:23;;;;;;;4.43;3.70;;;19.50;99.90;;;;;;5113726;28;20593;-71
2021/07/12 06:51:49;;;;;;;2.97;2.77;;;19.60;99.90;;;;;;5113633;28;21142;-71
2021/07/12 06:54:17;;;;;;;5.97;3.50;;;19.70;99.90;;;;;;5113030;28;20659;-71
2021/07/12 06:56:43;;;;;;;3.70;3.40;;;19.70;99.90;;;;;;5113561;28;20596;-71
2021/07/12 06:59:10;;;;;;;3.67;3.37;;;19.80;99.90;;;;;;5113515;28;20598;-71
2021/07/12 07:01:36;;;;;;;4.37;2.90;;;19.90;99.90;;;;;;5113621;28;20615;-71
2021/07/12 07:04:02;;;;;;;3.83;3.27;;;20.00;99.90;;;;;;5113780;28;20619;-71
2021/07/12 07:06:29;;;;;;;4.43;3.30;;;20.20;99.90;;;;;;5113565;28;20595;-71
2021/07/12 07:08:55;;;;;;;4.77;3.17;;;20.20;99.90;;;;;;5113926;28;21079;-71
2021/07/12 07:11:21;;;;;;;6.70;3.60;;;20.30;99.90;;;;;;5113098;28;20623;-71
2021/07/12 07:13:48;;;;;;;3.53;3.00;;;20.30;99.90;;;;;;5113536;28;20635;-71
2021/07/12 07:16:14;;;;;;;4.90;3.27;;;20.30;99.90;;;;;;5112872;28;20952;-71
2021/07/12 07:18:41;;;;;;;4.13;3.27;;;20.30;99.90;;;;;;5113452;28;20615;-71
2021/07/12 07:21:07;;;;;;;6.50;3.13;;;20.30;99.90;;;;;;5113243;28;20614;-71
2021/07/12 07:23:34;;;;;;;6.50;2.63;;;20.40;99.90;;;;;;5113502;28;20600;-71
2021/07/12 07:26:00;;;;;;;11.23;3.10;;;20.60;99.90;;;;;;5113266;28;21149;-71
2021/07/12 07:28:27;;;;;;;4.27;2.80;;;20.60;99.90;;;;;;5113242;28;20631;-71
2021/07/12 07:30:53;;;;;;;7.00;3.20;;;20.60;99.90;;;;;;5113295;28;21139;-71
2021/07/12 07:33:25;;;;;;;5.43;3.37;;;20.70;99.90;;;;;;5112981;28;20971;-71
2021/07/12 07:35:52;;;;;;;5.80;2.73;;;21.00;99.90;;;;;;5112742;28;20972;-71
2021/07/12 07:38:18;;;;;;;2.93;2.67;;;21.20;99.90;;;;;;5116355;28;20619;-71
2021/07/12 07:40:45;;;;;;;2.90;2.70;;;21.30;99.90;;;;;;5117105;28;20971;-71
2021/07/12 07:43:11;;;;;;;3.57;2.70;;;21.40;99.90;;;;;;5117177;28;20604;-71
2021/07/12 07:45:37;;;;;;;6.10;3.23;;;21.40;99.90;;;;;;5117148;28;20603;-71
2021/07/12 07:48:04;;;;;;;3.17;2.37;;;21.50;99.90;;;;;;5113689;28;20646;-71
2021/07/12 07:50:32;;;;;;;5.27;3.00;;;21.70;99.90;;;;;;5104803;28;20615;-71
2021/07/12 07:52:59;;;;;;;3.70;3.13;;;21.50;99.90;;;;;;5115937;28;21138;-71
2021/07/12 07:55:25;;;;;;;4.43;3.33;;;21.60;99.90;;;;;;5116450;28;20659;-71
2021/07/12 07:57:52;;;;;;;3.73;3.10;;;21.40;99.90;;;;;;5116277;28;20616;-71
2021/07/12 08:00:20;;;;;;;6.30;2.60;;;21.50;99.90;;;;;;5115769;28;20616;-71
2021/07/12 08:02:46;;;;;;;3.73;2.77;;;21.80;99.90;;;;;;5115680;28;20628;-71
2021/07/12 08:05:13;;;;;;;2.30;2.20;;;22.00;99.90;;;;;;5116181;28;20986;-71
2021/07/12 08:07:41;;;;;;;4.50;2.80;;;22.40;99.90;;;;;;5116170;28;20738;-71
2021/07/12 08:10:10;;;;;;;9.43;2.50;;;22.30;99.90;;;;;;5116061;28;20600;-71
2021/07/12 08:12:40;;;;;;;5.20;2.20;;;22.30;99.90;;;;;;5115963;28;20613;-71
2021/07/12 08:15:11;;;;;;;6.13;2.17;;;22.50;99.90;;;;;;5115877;28;20609;-71
2021/07/12 08:17:38;;;;;;;3.87;3.17;;;22.20;99.90;;;;;;5116170;28;20596;-72
2021/07/12 08:20:06;;;;;;;3.10;2.60;;;21.90;99.90;;;;;;5113768;28;20624;-72
2021/07/12 08:22:33;;;;;;;7.77;2.93;;;22.10;99.90;;;;;;5115599;28;20681;-72
2021/07/12 08:25:02;;;;;;;4.80;2.60;;;22.30;99.90;;;;;;5114885;28;20693;-72
2021/07/12 08:27:31;;;;;;;2.93;2.73;;;22.30;99.90;;;;;;5115795;28;20660;-72
2021/07/12 08:29:57;;;;;;;2.53;2.33;;;22.40;99.90;;;;;;5115137;28;20628;-72
2021/07/12 08:32:24;;;;;;;5.80;2.70;;;22.30;99.90;;;;;;5115012;28;20648;-72
2021/07/12 08:34:50;;;;;;;3.50;3.20;;;22.50;99.90;;;;;;5115745;28;20658;-72
2021/07/12 08:37:17;;;;;;;2.03;1.90;;;22.70;99.90;;;;;;5115020;28;20620;-72
2021/07/12 08:39:43;;;;;;;2.93;2.60;;;22.80;99.90;;;;;;5130120;27;20614;-72
2021/07/12 08:42:11;;;;;;;4.60;2.73;;;22.70;99.90;;;;;;5115597;28;20989;-72
2021/07/12 08:44:38;;;;;;;2.80;2.60;;;22.60;99.90;;;;;;5115649;28;20630;-72
2021/07/12 08:47:08;;;;;;;3.20;2.50;;;22.60;99.90;;;;;;5114803;28;21180;-72
2021/07/12 08:49:35;;;;;;;3.53;2.97;;;22.70;99.90;;;;;;5115381;28;20708;-72
2021/07/12 08:52:02;;;;;;;2.97;2.67;;;23.00;99.90;;;;;;5115329;28;20620;-72
2021/07/12 08:54:29;;;;;;;3.00;2.50;;;23.20;99.90;;;;;;5115210;28;20650;-72
2021/07/12 08:56:55;;;;;;;2.87;2.67;;;23.20;99.90;;;;;;5115004;28;20627;-71
2021/07/12 08:59:48;;;;;;;2.30;2.10;;;23.20;99.90;;;;;;5115105;28;20612;-72
2021/07/12 09:02:16;;;;;;;2.13;1.77;;;23.00;99.90;;;;;;5110691;28;20640;-72
2021/07/12 09:04:47;;;;;;;3.67;2.60;;;23.10;99.90;;;;;;5115130;28;20704;-71
2021/07/12 09:07:21;;;;;;;2.80;2.60;;;23.30;99.90;;;;;;5115195;28;20613;-71
2021/07/12 09:10:11;;;;;;;2.03;1.93;;;23.00;99.90;;;;;;5114551;28;20638;-71
2021/07/12 09:12:45;;;;;;;2.87;2.57;;;23.30;99.90;;;;;;5114752;28;20611;-72
2021/07/12 09:15:14;;;;;;;3.50;2.70;;;23.60;99.90;;;;;;5114838;28;20659;-71
2021/07/12 09:17:44;;;;;;;3.10;2.17;;;23.60;99.90;;;;;;5114718;28;20616;-71
2021/07/12 09:20:22;;;;;;;3.57;2.87;;;23.90;99.90;;;;;;5092723;28;20628;-70
2021/07/12 09:22:48;;;;;;;2.80;2.27;;;24.10;99.90;;;;;;5109098;28;20587;-71
2021/07/12 09:25:15;;;;;;;2.10;1.90;;;24.10;99.90;;;;;;5114378;28;20715;-71
2021/07/12 09:27:42;;;;;;;2.47;2.07;;;23.90;99.90;;;;;;5115025;28;20620;-71
2021/07/12 09:30:14;;;;;;;2.20;2.10;;;24.40;99.90;;;;;;5114769;28;20627;-71
2021/07/12 09:32:46;;;;;;;2.23;2.13;;;24.30;99.90;;;;;;5111421;27;21033;-71
2021/07/12 09:35:16;;;;;;;2.17;2.00;;;23.90;99.90;;;;;;5112441;28;20620;-72
2021/07/12 09:37:47;;;;;;;2.33;1.90;;;24.50;99.90;;;;;;5114458;28;21139;-72
2021/07/12 09:40:18;;;;;;;2.33;2.13;;;24.50;99.90;;;;;;5115093;27;20639;-72
2021/07/12 09:42:47;;;;;;;3.57;2.50;;;24.90;99.90;;;;;;5123222;27;20564;-72
2021/07/12 09:45:17;;;;;;;4.13;2.27;;;24.40;99.90;;;;;;5114245;28;20985;-72
2021/07/12 09:47:45;;;;;;;4.57;2.47;;;24.60;99.90;;;;;;5114739;28;20603;-72
2021/07/12 09:50:19;;;;;;;2.17;1.90;;;24.60;99.90;;;;;;5114388;28;20612;-72
2021/07/12 09:52:49;;;;;;;3.70;1.80;;;24.90;99.90;;;;;;5114543;28;21041;-72
2021/07/12 09:55:24;;;;;;;2.00;1.90;;;24.30;99.90;;;;;;5114066;28;20652;-72
2021/07/12 09:58:10;;;;;;;2.10;2.00;;;24.60;99.90;;;;;;5114754;28;20612;-72
2021/07/12 10:00:39;;;;;;;4.70;2.00;;;24.50;99.90;;;;;;5113350;28;20711;-72
2021/07/12 10:03:06;;;;;;;2.20;2.00;;;24.90;99.90;;;;;;5114067;28;20608;-72
2021/07/12 10:05:33;;;;;;;2.50;1.73;;;25.00;99.90;;;;;;5110428;28;20626;-72
2021/07/12 10:08:00;;;;;;;3.90;2.17;;;25.10;99.90;;;;;;5097004;28;20621;-72
2021/07/12 10:10:27;;;;;;;2.27;2.07;;;25.10;99.90;;;;;;5114201;28;20704;-72
2021/07/12 10:12:54;;;;;;;2.87;2.00;;;25.30;99.90;;;;;;5113763;28;20620;-72
2021/07/12 10:15:20;;;;;;;5.23;1.67;;;25.10;99.90;;;;;;5114284;28;20666;-71
2021/07/12 10:17:47;;;;;;;3.23;2.20;;;25.20;99.90;;;;;;5117375;28;20624;-72
2021/07/12 10:20:16;;;;;;;2.50;2.30;;;25.50;99.90;;;;;;5113770;28;20712;-72
2021/07/12 10:22:43;;;;;;;2.70;2.33;;;25.90;99.90;;;;;;5113608;28;20631;-72
2021/07/12 10:25:15;;;;;;;1.83;1.67;;;26.00;99.90;;;;;;5114045;28;20607;-72
2021/07/12 10:27:53;;;;;;;2.17;1.70;;;25.70;99.90;;;;;;5114327;28;20557;-71
2021/07/12 10:30:31;;;;;;;3.37;1.60;;;25.70;99.90;;;;;;5114053;28;20611;-72
2021/07/12 10:33:09;;;;;;;2.00;1.90;;;25.60;99.90;;;;;;5113992;28;20631;-72
2021/07/12 10:35:36;;;;;;;1.97;1.80;;;26.20;99.90;;;;;;5114124;28;20612;-72
2021/07/12 10:38:03;;;;;;;2.07;1.87;;;26.40;99.90;;;;;;5098433;28;20628;-71
2021/07/12 10:40:56;;;;;;;4.80;2.33;;;26.50;99.90;;;;;;5113688;28;21194;-71
2021/07/12 10:43:32;;;;;;;2.33;2.10;;;26.60;99.90;;;;;;5113101;28;20608;-72
2021/07/12 10:45:59;;;;;;;2.10;2.00;;;26.60;99.90;;;;;;5113446;28;20640;-72
2021/07/12 10:48:38;;;;;;;3.30;2.10;;;27.10;99.90;;;;;;5112411;28;20624;-72
2021/07/12 10:51:20;;;;;;;2.33;2.23;;;26.70;99.90;;;;;;5113289;28;20677;-71
2021/07/12 10:54:08;;;;;;;2.70;1.60;;;27.10;99.90;;;;;;5094946;28;20612;-72
2021/07/12 10:56:58;;;;;;;2.90;1.80;;;27.20;99.90;;;;;;5113150;28;21094;-72
2021/07/12 10:59:36;;;;;;;2.10;2.00;;;27.10;99.90;;;;;;5112881;28;20977;-71
2021/07/12 11:02:16;;;;;;;1.90;1.70;;;27.30;99.90;;;;;;5082254;28;20616;-72
2021/07/12 11:04:45;;;;;;;2.87;2.63;;;27.00;99.90;;;;;;5112963;28;20572;-72
2021/07/12 11:07:16;;;;;;;2.47;1.77;;;27.00;99.90;;;;;;5112769;28;20630;-72
2021/07/12 11:10:03;;;;;;;2.07;1.97;;;26.80;99.90;;;;;;5094581;28;21053;-72
2021/07/12 11:12:48;;;;;;;2.20;1.80;;;26.30;99.90;;;;;;5116781;28;20627;-71
2021/07/12 11:15:25;;;;;;;2.87;1.67;;;26.60;99.90;;;;;;5117849;28;20604;-71
2021/07/12 11:18:02;;;;;;;2.53;1.83;;;27.30;99.90;;;;;;5117636;28;20556;-72
2021/07/12 11:20:47;;;;;;;3.10;2.10;;;27.70;99.90;;;;;;5117866;28;20552;-71
2021/07/12 11:23:38;;;;;;;3.37;2.33;;;27.90;99.90;;;;;;5116660;28;20616;-71
2021/07/12 11:26:27;;;;;;;4.40;3.13;;;28.20;99.90;;;;;;5098627;28;20626;-71
2021/07/12 11:28:53;;;;;;;2.87;2.10;;;28.00;99.90;;;;;;5116798;28;20651;-72
2021/07/12 11:31:37;;;;;;;6.53;2.27;;;28.20;99.90;;;;;;5117411;28;20599;-72
2021/07/12 11:34:05;;;;;;;1.70;1.60;;;28.20;99.90;;;;;;5117332;28;20541;-72
2021/07/12 11:36:32;;;;;;;2.00;1.90;;;28.40;99.90;;;;;;5117281;28;20691;-72
2021/07/12 11:38:58;;;;;;;2.77;1.90;;;28.40;99.90;;;;;;5098574;28;21165;-72
2021/07/12 11:41:25;;;;;;;2.60;2.07;;;27.90;99.90;;;;;;5117194;28;20624;-71
2021/07/12 11:44:13;;;;;;;2.40;1.73;;;27.30;99.90;;;;;;5117092;28;21155;-71
2021/07/12 11:46:40;;;;;;;2.00;1.90;;;28.10;99.90;;;;;;5117258;28;20552;-72
2021/07/12 11:49:15;;;;;;;2.20;2.00;;;28.30;99.90;;;;;;5117119;28;20599;-72
2021/07/12 11:51:43;;;;;;;2.10;2.00;;;28.20;99.90;;;;;;5117052;28;20570;-72
2021/07/12 11:54:26;;;;;;;2.90;2.00;;;28.30;99.90;;;;;;5116591;28;20995;-72
2021/07/12 11:57:15;;;;;;;2.43;2.23;;;29.00;99.90;;;;;;5117029;28;20931;-72
2021/07/12 11:59:46;;;;;;;2.00;1.90;;;29.00;99.90;;;;;;5105318;28;20639;-72
2021/07/12 12:02:14;;;;;;;3.60;2.30;;;28.60;99.90;;;;;;5116262;28;20609;-72
2021/07/12 12:04:58;;;;;;;2.57;2.37;;;27.70;99.90;;;;;;5116747;28;20964;-72
2021/07/12 12:07:41;;;;;;;5.13;2.30;;;28.10;99.90;;;;;;5116216;28;20963;-72
2021/07/12 12:10:15;;;;;;;3.23;2.00;;;28.70;99.90;;;;;;5116094;28;20616;-72
2021/07/12 12:12:44;;;;;;;2.73;2.27;;;28.90;99.90;;;;;;5116148;28;20616;-72
2021/07/12 12:15:38;;;;;;;2.03;1.93;;;27.80;99.90;;;;;;5116376;28;20650;-72
2021/07/12 12:18:12;;;;;;;6.00;2.20;;;27.70;99.90;;;;;;5113432;28;21137;-72
2021/07/12 12:20:43;;;;;;;1.80;1.70;;;27.50;99.90;;;;;;5116388;28;20923;-72
2021/07/12 12:23:21;;;;;;;1.80;1.70;;;28.00;99.90;;;;;;5115663;28;20581;-72
2021/07/12 12:26:04;;;;;;;1.80;1.70;;;28.20;99.90;;;;;;5115762;28;20612;-72
2021/07/12 12:28:53;;;;;;;3.27;1.97;;;28.90;99.90;;;;;;5116046;28;20714;-72
2021/07/12 12:31:26;;;;;;;3.40;2.10;;;28.70;99.90;;;;;;5115815;28;20619;-72
2021/07/12 12:34:07;;;;;;;2.20;2.00;;;28.60;99.90;;;;;;5115504;28;21050;-72
2021/07/12 12:36:39;;;;;;;1.80;1.70;;;28.90;99.90;;;;;;5116079;28;20600;-72
2021/07/12 12:39:17;;;;;;;1.67;1.57;;;28.50;99.90;;;;;;5116584;28;20572;-72
2021/07/12 12:41:52;;;;;;;2.80;2.10;;;29.00;99.90;;;;;;5116057;28;20616;-72
2021/07/12 12:44:24;;;;;;;2.00;1.90;;;28.80;99.90;;;;;;5115673;28;20626;-72
2021/07/12 12:46:56;;;;;;;3.10;1.73;;;28.40;99.90;;;;;;5115986;28;20565;-70
2021/07/12 12:49:32;;;;;;;7.03;1.67;;;28.90;99.90;;;;;;5115934;28;20616;-70
2021/07/12 12:52:12;;;;;;;4.90;1.80;;;29.10;99.90;;;;;;5116070;28;20545;-69
2021/07/12 12:54:43;;;;;;;2.77;1.77;;;28.60;99.90;;;;;;5115211;28;20623;-71
2021/07/12 12:57:11;;;;;;;2.10;2.00;;;28.50;99.90;;;;;;5115337;28;20968;-70
2021/07/12 12:59:45;;;;;;;2.33;1.90;;;29.00;99.90;;;;;;5115136;28;20616;-71
2021/07/12 13:02:20;;;;;;;4.17;2.07;;;29.40;99.90;;;;;;5115720;28;20564;-71